Time;durP1;ratioP1;P1;durP2;ratioP2;P2;SDS_P1;SDS_P2;PMS_P1;PMS_P2;Temp;Humidity;BMP_temperature;BMP_pressure;BME280_temperature;BME280_humidity;BME280_pressure;Samples;Min_cycle;Max_cycle;Signal;HPM_P1;HPM_P2
2022/05/20 00:01:46;;;;;;;15.32;10.00;;;13.00;99.90;;;;;;5041648;28;20052;-53
2022/05/20 00:04:12;;;;;;;15.20;10.10;;;13.00;99.90;;;;;;5060141;28;20068;-53
2022/05/20 00:06:38;;;;;;;16.00;10.90;;;13.00;99.90;;;;;;5056763;28;20049;-53
2022/05/20 00:09:03;;;;;;;16.52;11.02;;;12.90;99.90;;;;;;5060026;28;20041;-53
2022/05/20 00:11:29;;;;;;;18.80;11.85;;;13.00;99.90;;;;;;5046942;28;20041;-52
2022/05/20 00:13:55;;;;;;;17.25;12.00;;;13.00;99.90;;;;;;5040411;28;20043;-50
2022/05/20 00:16:21;;;;;;;18.15;13.52;;;13.00;99.90;;;;;;5041139;28;20037;-53
2022/05/20 00:18:47;;;;;;;23.08;12.90;;;13.00;99.90;;;;;;5040535;28;20046;-53
2022/05/20 00:21:13;;;;;;;18.52;13.75;;;12.90;99.90;;;;;;5031174;28;20033;-53
2022/05/20 00:23:39;;;;;;;19.67;12.38;;;13.00;99.90;;;;;;5049068;28;20073;-53
2022/05/20 00:26:04;;;;;;;19.25;13.73;;;13.00;99.90;;;;;;5040208;28;20049;-53
2022/05/20 00:28:30;;;;;;;18.65;14.27;;;12.80;99.90;;;;;;5049708;28;20037;-52
2022/05/20 00:31:02;;;;;;;20.02;14.55;;;12.90;99.90;;;;;;5059637;28;20519;-51
2022/05/20 00:33:28;;;;;;;21.30;14.82;;;12.90;99.90;;;;;;5060523;28;20057;-52
2022/05/20 00:35:54;;;;;;;20.23;14.98;;;12.70;99.90;;;;;;5024576;28;20050;-54
2022/05/20 00:38:20;;;;;;;20.05;15.40;;;12.80;99.90;;;;;;5052418;28;20393;-52
2022/05/20 00:40:48;;;;;;;21.00;16.13;;;12.90;99.90;;;;;;5044881;28;20048;-52
2022/05/20 00:43:29;;;;;;;21.17;15.48;;;12.70;99.90;;;;;;5038587;28;20084;-53
2022/05/20 00:46:07;;;;;;;21.63;16.35;;;12.70;99.90;;;;;;5060771;28;20049;-53
2022/05/20 00:48:35;;;;;;;21.27;15.60;;;12.60;99.90;;;;;;5041495;28;20033;-53
2022/05/20 00:51:15;;;;;;;19.98;15.02;;;12.60;99.90;;;;;;5060121;28;20048;-53
2022/05/20 00:53:52;;;;;;;23.15;16.52;;;12.40;99.90;;;;;;5048585;28;20080;-52
2022/05/20 00:56:22;;;;;;;20.17;16.15;;;12.50;99.90;;;;;;5047890;28;20083;-51
2022/05/20 00:58:50;;;;;;;20.23;16.65;;;12.50;99.90;;;;;;5040829;28;20037;-52
2022/05/20 01:01:15;;;;;;;25.38;17.92;;;12.50;99.90;;;;;;5059189;28;20045;-52
2022/05/20 01:03:42;;;;;;;23.88;16.77;;;12.20;99.90;;;;;;5059411;28;20426;-50
2022/05/20 01:06:09;;;;;;;19.90;15.57;;;12.20;99.90;;;;;;5058242;28;20052;-52
2022/05/20 01:08:36;;;;;;;26.48;17.00;;;12.30;99.90;;;;;;5055500;28;20046;-53
2022/05/20 01:11:02;;;;;;;22.65;15.32;;;12.20;99.90;;;;;;5040364;28;20049;-53
2022/05/20 01:13:30;;;;;;;22.48;16.80;;;12.20;99.90;;;;;;5056949;28;20238;-52
2022/05/20 01:15:56;;;;;;;21.90;16.60;;;12.20;99.90;;;;;;5060361;28;20048;-52
2022/05/20 01:18:23;;;;;;;25.95;17.13;;;12.20;99.90;;;;;;5059023;28;20041;-53
2022/05/20 01:20:54;;;;;;;22.10;16.55;;;12.00;99.90;;;;;;5042005;28;20079;-51
2022/05/20 01:23:22;;;;;;;20.80;16.27;;;12.00;99.90;;;;;;5059561;28;20544;-51
2022/05/20 01:25:51;;;;;;;22.63;17.00;;;12.00;99.90;;;;;;5038167;28;20064;-53
2022/05/20 01:28:19;;;;;;;22.65;16.48;;;11.90;99.90;;;;;;5059845;28;20037;-52
2022/05/20 01:30:58;;;;;;;23.70;17.65;;;11.80;99.90;;;;;;5050449;28;20048;-53
2022/05/20 01:33:27;;;;;;;22.08;16.35;;;11.90;99.90;;;;;;5048312;28;20168;-53
2022/05/20 01:35:53;;;;;;;22.95;16.15;;;11.80;99.90;;;;;;5059425;28;20045;-50
2022/05/20 01:38:19;;;;;;;27.33;15.98;;;12.10;99.90;;;;;;5040546;28;20056;-53
2022/05/20 01:41:17;;;;;;;23.30;15.75;;;12.10;99.90;;;;;;5040310;28;20073;-53
2022/05/20 01:43:46;;;;;;;22.10;16.20;;;12.20;99.90;;;;;;5058258;28;20056;-52
2022/05/20 01:46:17;;;;;;;22.00;16.35;;;12.20;99.90;;;;;;5059407;28;20757;-53
2022/05/20 01:48:59;;;;;;;20.85;15.00;;;12.20;99.90;;;;;;5058845;28;20045;-52
2022/05/20 01:51:33;;;;;;;22.50;15.93;;;12.20;99.90;;;;;;5058817;28;20105;-53
2022/05/20 01:54:09;;;;;;;22.42;15.88;;;12.20;99.90;;;;;;5059251;28;20115;-52
2022/05/20 01:56:41;;;;;;;19.58;15.32;;;12.20;99.90;;;;;;5023693;28;20049;-53
2022/05/20 01:59:25;;;;;;;;;;;12.30;99.90;;;;;;5059628;28;20037;-52
2022/05/20 02:02:04;;;;;;;20.88;16.00;;;12.20;99.90;;;;;;5059272;28;19927;-53
2022/05/20 02:04:57;;;;;;;21.30;15.18;;;12.30;99.90;;;;;;5058279;28;20033;-54
2022/05/20 02:07:27;;;;;;;18.90;15.32;;;12.20;99.90;;;;;;5051503;28;20102;-53
2022/05/20 02:10:03;;;;;;;20.88;15.18;;;12.20;99.90;;;;;;5049682;28;20199;-53
2022/05/20 02:12:34;;;;;;;19.90;13.85;;;12.20;99.90;;;;;;5044646;28;20375;-53
2022/05/20 02:15:18;;;;;;;20.17;14.77;;;12.10;99.90;;;;;;5044086;28;20096;-53
2022/05/20 02:17:48;;;;;;;22.08;15.43;;;12.10;99.90;;;;;;5057747;28;20037;-53
2022/05/20 02:20:27;;;;;;;20.80;15.32;;;12.10;99.90;;;;;;5058603;28;20045;-53
2022/05/20 02:23:02;;;;;;;21.05;15.13;;;12.20;99.90;;;;;;5058414;28;20060;-52
2022/05/20 02:25:31;;;;;;;20.13;15.27;;;12.10;99.90;;;;;;5058130;28;20060;-52
2022/05/20 02:28:14;;;;;;;18.13;14.40;;;12.10;99.90;;;;;;5053334;28;20041;-52
2022/05/20 02:30:41;;;;;;;18.60;14.65;;;12.10;99.90;;;;;;5055486;28;20053;-52
2022/05/20 02:33:12;;;;;;;19.55;14.02;;;12.10;99.90;;;;;;5038954;28;20052;-52
2022/05/20 02:35:41;;;;;;;19.27;14.73;;;12.10;99.90;;;;;;5020553;28;20483;-53
2022/05/20 02:38:16;;;;;;;17.38;13.13;;;12.10;99.90;;;;;;5054985;28;20044;-51
2022/05/20 02:40:44;;;;;;;21.35;14.52;;;12.10;99.90;;;;;;5021766;28;20041;-53
2022/05/20 02:43:10;;;;;;;19.25;13.68;;;12.10;99.90;;;;;;5039228;28;20064;-52
2022/05/20 02:45:38;;;;;;;20.52;13.85;;;12.20;99.90;;;;;;5045460;28;20045;-52
2022/05/20 02:48:05;;;;;;;19.38;13.23;;;12.20;99.90;;;;;;5057190;28;20116;-53
2022/05/20 02:50:31;;;;;;;18.85;13.98;;;12.20;99.90;;;;;;5058112;28;20471;-52
2022/05/20 02:52:58;;;;;;;19.60;15.32;;;12.30;99.90;;;;;;5057913;28;20053;-52
2022/05/20 02:55:24;;;;;;;17.05;13.77;;;12.20;99.90;;;;;;5057766;28;20056;-54
2022/05/20 02:57:49;;;;;;;19.02;13.18;;;12.20;99.90;;;;;;5058361;28;20045;-52
2022/05/20 03:05:45;;;;;;;15.80;11.07;;;12.10;99.90;;;;;;5041751;28;20616;-53
2022/05/20 03:08:11;;;;;;;17.30;12.10;;;12.10;99.90;;;;;;5037677;28;20069;-54
2022/05/20 03:10:36;;;;;;;18.40;13.02;;;12.10;99.90;;;;;;5056743;28;20033;-52
2022/05/20 03:13:04;;;;;;;21.08;13.75;;;12.20;99.90;;;;;;5041487;28;20087;-53
2022/05/20 03:15:29;;;;;;;17.95;13.98;;;12.20;99.90;;;;;;5038400;28;20658;-54
2022/05/20 03:17:56;;;;;;;20.27;14.52;;;12.10;99.90;;;;;;5037074;28;20072;-55
2022/05/20 03:20:22;;;;;;;19.90;14.95;;;12.00;99.90;;;;;;5038254;28;20052;-54
2022/05/20 03:22:47;;;;;;;22.35;15.82;;;12.10;99.90;;;;;;5052560;28;20041;-51
2022/05/20 03:25:14;;;;;;;21.92;16.05;;;12.10;99.90;;;;;;5057706;28;20536;-54
2022/05/20 03:27:39;;;;;;;17.63;14.25;;;12.10;99.90;;;;;;5058612;28;20065;-52
2022/05/20 03:30:08;;;;;;;19.75;15.77;;;12.10;99.90;;;;;;5061240;28;20060;-54
2022/05/20 03:32:34;;;;;;;23.00;16.40;;;12.10;99.90;;;;;;5062216;28;20041;-51
2022/05/20 03:34:59;;;;;;;21.48;16.65;;;12.10;99.90;;;;;;5060667;28;20056;-52
2022/05/20 03:37:26;;;;;;;22.10;16.15;;;11.90;99.90;;;;;;5053257;28;20037;-52
2022/05/20 03:39:52;;;;;;;24.35;16.80;;;12.00;99.90;;;;;;5052025;28;20064;-52
2022/05/20 03:42:19;;;;;;;25.92;17.08;;;11.90;99.90;;;;;;5048331;28;20045;-53
2022/05/20 03:44:44;;;;;;;23.05;16.48;;;12.00;99.90;;;;;;5041768;28;20040;-49
2022/05/20 03:47:10;;;;;;;23.92;16.45;;;11.90;99.90;;;;;;5030545;28;20044;-53
2022/05/20 03:49:36;;;;;;;20.90;17.15;;;11.90;99.90;;;;;;5057060;28;20057;-53
2022/05/20 03:52:01;;;;;;;23.08;17.17;;;11.80;99.90;;;;;;5060218;28;20037;-53
2022/05/20 03:54:32;;;;;;;20.88;16.55;;;11.90;99.90;;;;;;5036736;28;20140;-53
2022/05/20 03:56:59;;;;;;;23.80;16.65;;;11.90;99.90;;;;;;5033855;28;20096;-53
2022/05/20 03:59:26;;;;;;;23.73;16.20;;;11.90;99.90;;;;;;5021576;28;20053;-52
2022/05/20 04:01:57;;;;;;;19.40;14.73;;;11.90;99.90;;;;;;5021566;28;20650;-53
2022/05/20 04:04:26;;;;;;;24.75;16.15;;;11.90;99.90;;;;;;5020629;28;20101;-50
2022/05/20 04:06:51;;;;;;;19.88;14.07;;;11.90;99.90;;;;;;5021566;28;20069;-51
2022/05/20 04:09:17;;;;;;;21.55;14.63;;;12.00;99.90;;;;;;5020753;28;20046;-53
2022/05/20 04:11:43;;;;;;;20.73;14.00;;;11.90;99.90;;;;;;5035750;28;20037;-54
2022/05/20 04:14:09;;;;;;;22.58;14.90;;;12.00;99.90;;;;;;5040535;28;20048;-52
2022/05/20 04:16:35;;;;;;;18.58;14.32;;;12.00;99.90;;;;;;5040875;28;20053;-53
2022/05/20 04:19:01;;;;;;;20.52;14.23;;;11.90;99.90;;;;;;5031543;28;20054;-53
2022/05/20 04:21:26;;;;;;;20.95;14.38;;;11.80;99.90;;;;;;5033197;28;20038;-54
2022/05/20 04:23:52;;;;;;;20.92;15.45;;;11.80;99.90;;;;;;5040455;28;20045;-53
2022/05/20 04:26:18;;;;;;;24.17;14.93;;;11.80;99.90;;;;;;5034069;28;20050;-54
2022/05/20 04:28:44;;;;;;;18.83;14.20;;;11.90;99.90;;;;;;5021339;28;20041;-53
2022/05/20 04:31:11;;;;;;;19.65;14.25;;;11.80;99.90;;;;;;5022585;28;20068;-53
2022/05/20 04:33:38;;;;;;;15.75;13.70;;;11.90;99.90;;;;;;5040760;28;20060;-54
2022/05/20 04:36:05;;;;;;;18.30;13.63;;;11.90;99.90;;;;;;5041032;28;20496;-54
2022/05/20 04:38:31;;;;;;;18.75;14.27;;;11.70;99.90;;;;;;5039973;28;20045;-53
2022/05/20 04:49:10;;;;;;;20.80;14.90;;;11.90;99.90;;;;;;5039112;28;20063;-53
2022/05/20 04:51:40;;;;;;;17.20;14.15;;;12.00;99.90;;;;;;5039032;28;20101;-54
2022/05/20 04:56:52;;;;;;;17.77;13.85;;;12.00;99.90;;;;;;5059584;28;20072;-53
2022/05/20 04:59:20;;;;;;;18.20;13.82;;;12.10;99.90;;;;;;5052186;28;20050;-52
2022/05/20 05:01:46;;;;;;;18.10;13.27;;;12.20;99.90;;;;;;5040190;28;20054;-50
2022/05/20 05:04:12;;;;;;;19.23;14.52;;;12.20;99.90;;;;;;5039701;28;20048;-53
2022/05/20 05:06:38;;;;;;;17.73;13.60;;;12.30;99.90;;;;;;5044270;28;20111;-53
2022/05/20 05:09:04;;;;;;;17.27;12.98;;;12.40;99.90;;;;;;5058706;28;20056;-54
2022/05/20 05:11:30;;;;;;;18.70;13.95;;;12.60;99.90;;;;;;5058649;28;20041;-53
2022/05/20 05:13:56;;;;;;;19.42;13.90;;;12.60;99.90;;;;;;5047382;28;20048;-53
2022/05/20 05:16:22;;;;;;;17.63;12.85;;;12.70;99.90;;;;;;5059826;28;20055;-52
2022/05/20 05:18:47;;;;;;;22.05;14.60;;;12.80;99.90;;;;;;5059523;28;20044;-54
2022/05/20 05:21:14;;;;;;;19.77;14.05;;;12.90;99.90;;;;;;5039935;28;20041;-54
2022/05/20 05:23:40;;;;;;;21.90;15.00;;;13.00;99.90;;;;;;5040901;28;20064;-53
2022/05/20 05:26:06;;;;;;;19.27;13.88;;;13.00;99.90;;;;;;5046246;28;20044;-54
2022/05/20 05:28:32;;;;;;;22.92;13.27;;;13.20;99.90;;;;;;5051863;28;20049;-54
2022/05/20 05:30:58;;;;;;;20.38;14.27;;;13.20;99.90;;;;;;5038522;28;20037;-53
2022/05/20 05:33:24;;;;;;;17.63;13.77;;;13.30;99.90;;;;;;5046063;28;20079;-53
2022/05/20 05:35:50;;;;;;;16.60;12.77;;;13.30;99.90;;;;;;5055809;28;20060;-52
2022/05/20 05:38:16;;;;;;;20.20;11.98;;;13.40;99.90;;;;;;5055752;28;20057;-54
2022/05/20 05:40:41;;;;;;;17.67;14.05;;;13.50;99.90;;;;;;5056284;28;20847;-53
2022/05/20 05:43:07;;;;;;;16.30;13.73;;;13.40;99.90;;;;;;5037369;28;20378;-53
2022/05/20 05:45:34;;;;;;;15.32;12.85;;;13.40;99.90;;;;;;5046159;28;20049;-54
2022/05/20 05:48:06;;;;;;;17.38;13.80;;;13.50;99.90;;;;;;5034527;28;20056;-53
2022/05/20 05:50:34;;;;;;;20.15;13.77;;;13.60;99.90;;;;;;5055418;28;20044;-53
2022/05/20 05:53:09;;;;;;;18.35;14.48;;;13.70;99.90;;;;;;5056007;28;20049;-51
2022/05/20 05:55:35;;;;;;;19.08;14.68;;;13.60;99.90;;;;;;5054763;28;20084;-52
2022/05/20 05:58:01;;;;;;;16.67;13.40;;;13.60;99.90;;;;;;5048013;28;20045;-53
2022/05/20 06:00:26;;;;;;;21.92;14.02;;;13.90;99.90;;;;;;5034424;28;20119;-52
2022/05/20 06:02:53;;;;;;;18.92;12.95;;;13.90;99.90;;;;;;5036179;28;20041;-53
2022/05/20 06:05:19;;;;;;;19.45;11.75;;;14.00;99.90;;;;;;5034987;28;20504;-53
2022/05/20 06:07:45;;;;;;;15.73;8.75;;;14.00;99.90;;;;;;5051633;28;20053;-53
2022/05/20 06:10:11;;;;;;;20.00;11.45;;;14.00;99.90;;;;;;5051807;28;20052;-54
2022/05/20 06:12:37;;;;;;;15.45;9.77;;;14.10;99.90;;;;;;5034806;28;20083;-54
2022/05/20 06:15:05;;;;;;;16.73;11.45;;;14.10;99.90;;;;;;5035701;28;20050;-50
2022/05/20 06:17:31;;;;;;;14.23;10.27;;;14.40;99.90;;;;;;5034325;28;20052;-54
2022/05/20 06:19:57;;;;;;;14.32;8.75;;;14.50;99.90;;;;;;5035962;28;20049;-53
2022/05/20 06:22:23;;;;;;;14.93;9.55;;;14.50;99.90;;;;;;5034270;28;20060;-53
2022/05/20 06:24:48;;;;;;;14.75;9.73;;;14.70;99.90;;;;;;5035473;28;20108;-53
2022/05/20 06:27:14;;;;;;;14.60;9.05;;;14.80;99.90;;;;;;5045604;28;20079;-53
2022/05/20 06:29:39;;;;;;;13.00;8.27;;;14.90;99.90;;;;;;5036999;28;20048;-54
2022/05/20 06:32:05;;;;;;;13.55;6.38;;;15.10;99.90;;;;;;5038067;28;20053;-53
2022/05/20 06:39:48;;;;;;;11.50;3.97;;;15.30;99.90;;;;;;5016095;28;20113;-54
2022/05/20 06:40:09;;;;;;;16.08;9.90;;;15.60;99.90;;;;;;5049285;28;20113;-53
2022/05/20 06:42:34;;;;;;;18.23;10.18;;;15.60;99.90;;;;;;5037288;28;20087;-54
2022/05/20 06:45:00;;;;;;;15.35;10.88;;;15.40;99.90;;;;;;5055308;28;20045;-53
2022/05/20 06:47:26;;;;;;;14.52;9.63;;;15.30;99.90;;;;;;5053445;28;20041;-53
2022/05/20 06:49:51;;;;;;;14.65;10.90;;;15.30;99.90;;;;;;5055192;28;20045;-53
2022/05/20 06:52:17;;;;;;;13.70;9.65;;;15.30;99.90;;;;;;5054158;28;20033;-54
2022/05/20 06:54:43;;;;;;;13.15;9.10;;;15.40;99.90;;;;;;5036882;28;20065;-53
2022/05/20 06:57:08;;;;;;;14.88;9.27;;;15.10;99.90;;;;;;5035315;28;20108;-53
2022/05/20 06:59:36;;;;;;;13.98;9.38;;;15.20;99.90;;;;;;5053348;28;20108;-53
2022/05/20 07:02:01;;;;;;;14.88;10.80;;;15.40;99.90;;;;;;5053520;28;20045;-54
2022/05/20 07:04:31;;;;;;;16.05;10.32;;;15.40;99.90;;;;;;5053109;28;20075;-56
2022/05/20 07:06:59;;;;;;;12.88;9.90;;;15.30;99.90;;;;;;5050015;28;20252;-53
2022/05/20 07:09:25;;;;;;;15.80;11.02;;;15.30;99.90;;;;;;5049914;28;20048;-53
2022/05/20 07:11:51;;;;;;;15.43;11.35;;;15.60;99.90;;;;;;5038100;28;20049;-54
2022/05/20 07:14:17;;;;;;;16.88;10.52;;;15.50;99.90;;;;;;5036796;28;20060;-52
2022/05/20 07:16:43;;;;;;;16.17;10.85;;;15.60;99.90;;;;;;5054185;28;20049;-53
2022/05/20 07:19:09;;;;;;;15.95;11.00;;;15.60;99.90;;;;;;5054920;28;20049;-53
2022/05/20 07:21:35;;;;;;;15.43;11.20;;;15.60;99.90;;;;;;5054031;28;20523;-53
2022/05/20 07:24:04;;;;;;;13.18;10.38;;;15.40;99.90;;;;;;5054767;28;20045;-53
2022/05/20 07:26:30;;;;;;;13.60;10.15;;;15.40;99.90;;;;;;5053699;28;20052;-52
2022/05/20 07:28:56;;;;;;;19.70;12.13;;;15.30;99.90;;;;;;5040548;28;20045;-54
2022/05/20 07:31:24;;;;;;;13.23;10.23;;;15.10;99.90;;;;;;5034588;28;20133;-54
2022/05/20 07:33:51;;;;;;;16.08;9.90;;;15.10;99.90;;;;;;5048713;28;20053;-52
2022/05/20 07:36:17;;;;;;;10.60;6.63;;;15.40;99.90;;;;;;5037786;28;20085;-51
2022/05/20 07:38:43;;;;;;;11.55;6.60;;;15.60;99.90;;;;;;5041974;28;20833;-53
2022/05/20 07:41:09;;;;;;;12.00;6.95;;;15.70;99.90;;;;;;5037585;28;20045;-51
2022/05/20 07:43:35;;;;;;;11.65;6.70;;;15.80;99.90;;;;;;5037462;28;20059;-53
2022/05/20 07:46:01;;;;;;;12.20;5.53;;;16.00;99.90;;;;;;5042590;28;20052;-53
2022/05/20 07:48:28;;;;;;;11.82;6.10;;;16.30;99.90;;;;;;5053344;28;20051;-52
2022/05/20 07:51:02;;;;;;;13.00;7.00;;;16.20;99.90;;;;;;5046278;28;20489;-53
2022/05/20 07:53:36;;;;;;;10.93;6.07;;;15.90;99.90;;;;;;5034392;28;20097;-52
2022/05/20 07:56:15;;;;;;;11.55;5.30;;;15.90;99.90;;;;;;5044035;28;20048;-54
2022/05/20 07:58:56;;;;;;;10.40;5.18;;;16.00;99.90;;;;;;5054561;28;20036;-52
2022/05/20 08:01:25;;;;;;;12.00;6.28;;;16.20;99.90;;;;;;5054078;28;20045;-55
2022/05/20 08:06:49;;;;;;;10.05;5.97;;;16.00;99.90;;;;;;5054740;28;20088;-50
2022/05/20 08:09:14;;;;;;;10.43;6.10;;;15.80;99.90;;;;;;5053136;28;20045;-54
2022/05/20 08:11:40;;;;;;;10.90;6.95;;;16.00;99.90;;;;;;5053759;28;20045;-53
2022/05/20 08:14:06;;;;;;;12.48;7.00;;;15.90;99.90;;;;;;5036276;28;20157;-53
2022/05/20 08:16:32;;;;;;;12.50;6.22;;;16.30;99.90;;;;;;5054983;28;20049;-53
2022/05/20 08:18:58;;;;;;;9.48;6.90;;;16.50;99.90;;;;;;5039743;28;20053;-53
2022/05/20 08:21:24;;;;;;;12.05;6.40;;;16.50;99.90;;;;;;5048713;28;20106;-54
2022/05/20 08:23:49;;;;;;;9.80;5.40;;;16.50;99.90;;;;;;5029261;28;20057;-53
2022/05/20 08:26:17;;;;;;;9.68;5.15;;;16.50;99.90;;;;;;5038102;28;20045;-53
2022/05/20 08:28:44;;;;;;;9.05;4.32;;;16.60;99.90;;;;;;5057741;28;20072;-53
2022/05/20 08:31:09;;;;;;;9.00;4.43;;;16.60;99.90;;;;;;5056881;28;20672;-53
2022/05/20 08:33:35;;;;;;;10.05;3.70;;;16.80;99.90;;;;;;5057511;28;20069;-53
2022/05/20 08:36:03;;;;;;;8.70;3.70;;;16.90;99.90;;;;;;5057161;28;20052;-53
2022/05/20 08:38:29;;;;;;;11.35;4.03;;;16.80;99.90;;;;;;5056737;28;20120;-53
2022/05/20 08:40:57;;;;;;;9.57;3.97;;;16.80;99.90;;;;;;5056048;28;20048;-53
2022/05/20 08:43:26;;;;;;;8.32;4.07;;;17.00;99.90;;;;;;5054406;28;20097;-53
2022/05/20 08:45:52;;;;;;;10.23;4.00;;;17.00;99.90;;;;;;5037866;28;20045;-54
2022/05/20 08:48:18;;;;;;;9.60;4.82;;;17.10;99.90;;;;;;5039329;28;20048;-53
2022/05/20 08:50:48;;;;;;;12.10;5.07;;;17.10;99.90;;;;;;5056345;28;20122;-52
2022/05/20 08:53:39;;;;;;;10.70;4.80;;;17.10;99.90;;;;;;5056542;28;20049;-53
2022/05/20 08:56:08;;;;;;;8.75;4.57;;;17.10;99.90;;;;;;5055474;28;20123;-52
2022/05/20 08:58:36;;;;;;;9.90;4.13;;;17.30;99.90;;;;;;5042533;28;20428;-54
2022/05/20 09:01:03;;;;;;;8.80;4.30;;;17.20;99.90;;;;;;5059248;28;20063;-52
2022/05/20 09:03:30;;;;;;;9.52;4.68;;;17.30;99.90;;;;;;5029690;28;20103;-54
2022/05/20 09:06:14;;;;;;;11.50;4.50;;;17.20;99.90;;;;;;5059635;28;20048;-53
2022/05/20 09:08:40;;;;;;;10.38;4.22;;;17.30;99.90;;;;;;5059426;28;20053;-53
2022/05/20 09:11:12;;;;;;;7.20;4.32;;;17.50;99.90;;;;;;5049046;28;20049;-54
2022/05/20 09:16:26;;;;;;;10.80;4.75;;;17.70;99.90;;;;;;5059975;28;20136;-53
2022/05/20 09:19:06;;;;;;;11.20;4.95;;;17.60;99.90;;;;;;5059459;28;20492;-53
2022/05/20 09:21:38;;;;;;;8.82;4.20;;;17.80;99.90;;;;;;5024169;28;20061;-53
2022/05/20 09:24:13;;;;;;;8.98;4.15;;;18.00;99.90;;;;;;5040424;28;20138;-53
2022/05/20 09:26:45;;;;;;;10.02;3.78;;;18.00;99.90;;;;;;5040504;28;20167;-53
2022/05/20 09:29:27;;;;;;;;;;;18.00;99.90;;;;;;5056819;28;20048;-52
2022/05/20 09:32:00;;;;;;;8.98;4.47;;;17.90;99.90;;;;;;5040005;28;19925;-52
2022/05/20 09:34:26;;;;;;;7.93;3.42;;;17.90;99.90;;;;;;5038845;28;20046;-54
2022/05/20 09:37:14;;;;;;;8.18;3.55;;;17.70;99.90;;;;;;5051817;28;20048;-53
2022/05/20 09:39:43;;;;;;;9.52;3.80;;;17.80;99.90;;;;;;5056979;28;20064;-53
2022/05/20 09:42:24;;;;;;;9.93;3.67;;;17.80;99.90;;;;;;5047844;28;20045;-53
2022/05/20 09:44:56;;;;;;;6.90;3.55;;;18.10;99.90;;;;;;5048327;28;20090;-53
2022/05/20 09:47:31;;;;;;;7.07;3.47;;;18.10;99.90;;;;;;5058056;28;20037;-52
2022/05/20 09:50:11;;;;;;;7.65;2.83;;;17.90;99.90;;;;;;5059409;28;20052;-53
2022/05/20 09:52:47;;;;;;;8.55;4.10;;;18.00;99.90;;;;;;5058429;28;20078;-53
2022/05/20 09:55:22;;;;;;;10.52;3.78;;;17.80;99.90;;;;;;5058507;28;20056;-53
2022/05/20 09:57:48;;;;;;;7.50;2.63;;;17.70;99.90;;;;;;5053556;28;20044;-50
2022/05/20 10:00:32;;;;;;;7.95;3.60;;;18.20;99.90;;;;;;5057432;28;20040;-53
2022/05/20 10:03:14;;;;;;;8.57;4.15;;;18.10;99.90;;;;;;5056978;28;20040;-53
2022/05/20 10:06:07;;;;;;;8.85;3.40;;;18.00;99.90;;;;;;5055910;28;20094;-54
2022/05/20 10:08:55;;;;;;;8.68;4.22;;;18.20;99.90;;;;;;5038630;28;20053;-53
2022/05/20 10:11:46;;;;;;;8.88;3.88;;;18.30;99.90;;;;;;5040280;28;20291;-53
2022/05/20 10:14:22;;;;;;;9.63;4.45;;;18.10;99.90;;;;;;5019857;28;20111;-53
2022/05/20 10:16:59;;;;;;;8.02;4.05;;;18.10;99.90;;;;;;5034995;28;20080;-52
2022/05/20 10:20:01;;;;;;;8.00;4.18;;;18.20;99.90;;;;;;5049301;28;20103;-53
2022/05/20 10:22:45;;;;;;;10.35;4.97;;;18.30;99.90;;;;;;5054955;28;20052;-52
2022/05/20 10:25:35;;;;;;;10.23;4.93;;;18.10;99.90;;;;;;5055403;28;20045;-53
2022/05/20 10:34:14;;;;;;;8.13;4.50;;;18.30;99.90;;;;;;5054527;28;20053;-55
2022/05/20 10:37:25;;;;;;;9.48;4.40;;;18.40;99.90;;;;;;5055506;28;20084;-51
2022/05/20 10:40:03;;;;;;;8.70;4.18;;;18.30;99.90;;;;;;5012118;28;20519;-50
2022/05/20 10:43:04;;;;;;;8.77;3.45;;;18.40;99.90;;;;;;5051110;28;20057;-52
2022/05/20 10:48:50;;;;;;;7.13;3.10;;;18.60;99.90;;;;;;5054609;28;20095;-52
2022/05/20 10:51:22;;;;;;;8.55;3.47;;;18.70;99.90;;;;;;5052406;28;20077;-53
2022/05/20 10:54:23;;;;;;;7.35;3.70;;;18.90;99.90;;;;;;5035019;28;20057;-52
2022/05/20 10:57:03;;;;;;;9.48;3.90;;;18.50;99.90;;;;;;5052654;28;20078;-54
2022/05/20 11:00:00;;;;;;;7.05;4.00;;;18.70;99.90;;;;;;5054483;28;20053;-51
2022/05/20 11:02:42;;;;;;;8.75;4.10;;;18.70;99.90;;;;;;5041101;28;20049;-54
2022/05/20 11:05:41;;;;;;;9.23;3.42;;;18.50;99.90;;;;;;5057230;28;20048;-54
2022/05/20 11:08:44;;;;;;;9.60;4.20;;;18.60;99.90;;;;;;5055939;28;20056;-54
2022/05/20 11:11:40;;;;;;;8.93;4.32;;;18.80;99.90;;;;;;5051034;28;20054;-54
2022/05/20 11:14:43;;;;;;;8.63;3.78;;;19.00;99.90;;;;;;5037916;28;20053;-54
2022/05/20 11:17:56;;;;;;;8.55;4.65;;;18.80;99.90;;;;;;5040362;28;20037;-54
2022/05/20 11:20:21;;;;;;;10.52;5.05;;;18.70;99.90;;;;;;5038285;28;20037;-53
2022/05/20 11:23:21;;;;;;;8.73;4.75;;;18.70;99.90;;;;;;5054665;28;20041;-51
2022/05/20 11:25:55;;;;;;;8.80;4.60;;;18.70;99.90;;;;;;5057311;28;20100;-53
2022/05/20 11:28:30;;;;;;;7.47;3.95;;;18.90;99.90;;;;;;5058502;28;20041;-51
2022/05/20 11:31:01;;;;;;;8.75;4.05;;;19.00;99.90;;;;;;5057324;28;20044;-52
2022/05/20 11:33:27;;;;;;;;;;;18.90;99.90;;;;;;5057559;28;20065;-52
2022/05/20 11:36:03;;;;;;;9.00;3.95;;;19.10;99.90;;;;;;5057157;28;19924;-53
2022/05/20 11:38:43;;;;;;;8.27;3.35;;;19.20;99.90;;;;;;5054885;28;20037;-53
2022/05/20 11:41:31;;;;;;;6.78;3.35;;;19.20;99.90;;;;;;5057019;28;20041;-52
2022/05/20 11:44:08;;;;;;;8.70;3.80;;;19.30;99.90;;;;;;5054714;28;20084;-53
2022/05/20 11:47:06;;;;;;;11.25;4.35;;;19.20;99.90;;;;;;5056664;28;20463;-52
2022/05/20 11:49:50;;;;;;;8.02;3.70;;;19.00;99.90;;;;;;5056483;28;20045;-53
2022/05/20 11:52:40;;;;;;;10.73;5.20;;;19.20;99.90;;;;;;5050313;28;20053;-52
2022/05/20 11:55:16;;;;;;;11.82;4.07;;;19.20;99.90;;;;;;5056401;28;20052;-53
2022/05/20 11:57:46;;;;;;;7.03;3.70;;;19.30;99.90;;;;;;5055903;28;20100;-52
2022/05/20 12:00:14;;;;;;;8.18;4.40;;;19.10;99.90;;;;;;5037450;28;20754;-52
2022/05/20 12:03:03;;;;;;;11.20;4.85;;;19.00;99.90;;;;;;5058315;28;20056;-53
2022/05/20 12:05:32;;;;;;;12.68;4.10;;;19.20;99.90;;;;;;5057634;28;20052;-53
2022/05/20 12:07:58;;;;;;;10.60;3.38;;;19.40;99.90;;;;;;5053797;28;20037;-53
2022/05/20 12:10:30;;;;;;;8.40;3.40;;;19.40;99.90;;;;;;5049237;28;20127;-52
2022/05/20 12:13:26;;;;;;;8.65;3.63;;;19.40;99.90;;;;;;5054029;28;20052;-52
2022/05/20 12:16:15;;;;;;;7.78;3.85;;;19.40;99.90;;;;;;5057745;28;20045;-54
2022/05/20 12:24:42;;;;;;;7.75;3.22;;;19.00;99.90;;;;;;5057905;28;20052;-53
2022/05/20 12:27:23;;;;;;;;;;;19.10;99.90;;;;;;5058130;28;20080;-53
2022/05/20 12:30:09;;;;;;;7.93;3.60;;;19.30;99.90;;;;;;5038935;28;19956;-53
2022/05/20 12:32:34;;;;;;;6.25;2.97;;;19.50;99.90;;;;;;5037557;28;20041;-52
2022/05/20 12:35:28;;;;;;;9.35;3.83;;;19.60;99.90;;;;;;5036729;28;20075;-52
2022/05/20 12:38:15;;;;;;;7.93;3.40;;;19.90;99.90;;;;;;5037284;28;20045;-52
2022/05/20 12:40:41;;;;;;;5.97;2.90;;;20.10;99.90;;;;;;5037749;28;20050;-52
2022/05/20 12:43:10;;;;;;;8.43;3.22;;;20.20;99.90;;;;;;5052606;28;20117;-53
2022/05/20 12:45:53;;;;;;;7.93;3.17;;;20.00;99.90;;;;;;5057295;28;20051;-52
2022/05/20 12:48:23;;;;;;;7.75;3.50;;;20.10;99.90;;;;;;5047091;28;20045;-52
2022/05/20 12:50:59;;;;;;;8.13;3.45;;;20.10;99.90;;;;;;5037819;28;20049;-52
2022/05/20 12:53:29;;;;;;;9.38;4.10;;;20.10;99.90;;;;;;5045283;28;20056;-53
2022/05/20 12:55:56;;;;;;;9.00;3.67;;;20.00;99.90;;;;;;5056012;28;20559;-48
2022/05/20 12:58:29;;;;;;;6.43;2.90;;;19.90;99.90;;;;;;5057026;28;20323;-52
2022/05/20 13:01:01;;;;;;;7.57;2.70;;;19.90;99.90;;;;;;5054759;28;20049;-51
2022/05/20 13:03:31;;;;;;;8.88;3.40;;;19.90;99.90;;;;;;5040610;28;20049;-52
2022/05/20 13:06:00;;;;;;;6.47;2.75;;;19.90;99.90;;;;;;5060109;28;20056;-52
2022/05/20 13:08:29;;;;;;;6.40;3.38;;;20.10;99.90;;;;;;5059652;28;20045;-52
2022/05/20 13:10:55;;;;;;;9.50;4.07;;;20.10;99.90;;;;;;5059875;28;20105;-52
2022/05/20 13:13:23;;;;;;;8.13;4.18;;;20.10;99.90;;;;;;5053861;28;20044;-53
2022/05/20 13:15:54;;;;;;;9.45;4.75;;;19.90;99.90;;;;;;5053183;28;20152;-54
2022/05/20 13:18:26;;;;;;;10.20;5.68;;;19.70;99.90;;;;;;5050033;28;20036;-53
2022/05/20 13:20:55;;;;;;;11.55;5.30;;;19.60;99.90;;;;;;5059598;28;20092;-52
2022/05/20 13:23:26;;;;;;;11.07;6.13;;;19.60;99.90;;;;;;5052572;28;20081;-51
2022/05/20 13:25:52;;;;;;;9.90;5.83;;;19.50;99.90;;;;;;5049154;28;20128;-49
2022/05/20 13:28:26;;;;;;;8.70;5.35;;;19.50;99.90;;;;;;5049081;28;20045;-52
2022/05/20 13:31:10;;;;;;;8.55;5.10;;;19.50;99.90;;;;;;5042259;28;20052;-52
2022/05/20 13:33:38;;;;;;;12.55;6.10;;;19.50;99.90;;;;;;5059423;28;20090;-52
2022/05/20 13:36:06;;;;;;;10.23;6.25;;;19.40;99.90;;;;;;5041739;28;20124;-51
2022/05/20 13:38:39;;;;;;;9.88;6.93;;;19.40;99.90;;;;;;5058770;28;20041;-52